Time;durP1;ratioP1;P1;durP2;ratioP2;P2;SDS_P1;SDS_P2;PMS_P1;PMS_P2;Temp;Humidity;BMP_temperature;BMP_pressure;BME280_temperature;BME280_humidity;BME280_pressure;Samples;Min_cycle;Max_cycle;Signal;HPM_P1;HPM_P2
2022/01/11 00:02:15;;;;;;;8.27;0.93;;;;;;;;;;4990525;28;20410;-70
2022/01/11 00:05:07;;;;;;;6.47;1.10;;;;;;;;;;4925155;29;20052;-69
2022/01/11 00:08:00;;;;;;;5.43;0.95;;;;;;;;;;4901209;29;20063;-69
2022/01/11 00:10:54;;;;;;;5.32;1.10;;;;;;;;;;4931137;28;20055;-68
2022/01/11 00:13:54;;;;;;;3.42;1.02;;;;;;;;;;4936935;29;20066;-68
2022/01/11 00:25:44;;;;;;;4.97;1.60;;;;;;;;;;4884617;29;20111;-69
2022/01/11 00:28:18;;;;;;;5.05;0.85;;;;;;;;;;4886338;29;20068;-69
2022/01/11 00:31:00;;;;;;;5.15;1.10;;;;;;;;;;4885693;29;20045;-70
2022/01/11 00:33:43;;;;;;;10.70;1.45;;;;;;;;;;4884927;29;20065;-69
2022/01/11 00:36:15;;;;;;;7.32;1.10;;;;;;;;;;4894483;29;20049;-68
2022/01/11 00:38:47;;;;;;;;;;;;;;;;;;4878821;29;20068;-68
2022/01/11 00:41:19;;;;;;;3.40;0.90;;;;;;;;;;4881315;29;19946;-69
2022/01/11 00:43:51;;;;;;;3.80;1.17;;;;;;;;;;4932367;29;20092;-69
2022/01/11 00:46:22;;;;;;;3.80;1.05;;;;;;;;;;4881260;29;20043;-69
2022/01/11 00:48:54;;;;;;;5.00;0.93;;;;;;;;;;4932514;29;20052;-68
2022/01/11 00:51:25;;;;;;;4.65;1.10;;;;;;;;;;4935034;29;20059;-68
2022/01/11 00:53:57;;;;;;;7.80;1.27;;;;;;;;;;4942583;28;20055;-70
2022/01/11 00:56:28;;;;;;;4.60;1.20;;;;;;;;;;4931288;28;20055;-68
2022/01/11 00:58:59;;;;;;;5.65;1.20;;;;;;;;;;4929944;29;20051;-68
2022/01/11 01:01:34;;;;;;;6.53;1.20;;;;;;;;;;4932104;29;20388;-69
2022/01/11 01:04:08;;;;;;;6.47;0.93;;;;;;;;;;4931707;29;20062;-69
2022/01/11 01:06:39;;;;;;;6.40;1.13;;;;;;;;;;4951188;28;20063;-71
2022/01/11 01:09:13;;;;;;;3.55;0.95;;;;;;;;;;4929698;29;20055;-68
2022/01/11 01:11:48;;;;;;;9.27;1.48;;;;;;;;;;4932059;29;20437;-67
2022/01/11 01:14:21;;;;;;;8.77;1.17;;;;;;;;;;4919365;29;20052;-69
2022/01/11 01:16:53;;;;;;;5.22;0.70;;;;;;;;;;4890504;29;20067;-69
2022/01/11 01:19:31;;;;;;;4.40;1.05;;;;;;;;;;4864608;29;20382;-69
2022/01/11 01:22:01;;;;;;;4.97;1.08;;;;;;;;;;4878633;29;20481;-68
2022/01/11 01:24:32;;;;;;;9.18;1.02;;;;;;;;;;4882426;29;20078;-69
2022/01/11 01:27:04;;;;;;;6.18;1.02;;;;;;;;;;4928226;29;20052;-64
2022/01/11 01:29:35;;;;;;;5.47;1.08;;;;;;;;;;4950825;29;20393;-67
2022/01/11 01:32:05;;;;;;;7.28;1.13;;;;;;;;;;4935094;29;20055;-68
2022/01/11 01:34:37;;;;;;;8.38;1.10;;;;;;;;;;4919283;29;20055;-68
2022/01/11 01:37:08;;;;;;;8.45;1.17;;;;;;;;;;4920821;29;20067;-69
2022/01/11 01:39:39;;;;;;;5.57;1.25;;;;;;;;;;4935443;29;20055;-68
2022/01/11 01:42:11;;;;;;;7.65;1.33;;;;;;;;;;4948788;29;20055;-67
2022/01/11 01:44:42;;;;;;;5.78;1.20;;;;;;;;;;4958406;28;20059;-69
2022/01/11 01:47:13;;;;;;;6.05;1.08;;;;;;;;;;4947995;28;20051;-68
2022/01/11 01:49:44;;;;;;;4.72;0.90;;;;;;;;;;4961467;28;20048;-69
2022/01/11 01:52:15;;;;;;;4.22;0.90;;;;;;;;;;4978509;28;20058;-69
2022/01/11 01:54:46;;;;;;;3.58;1.20;;;;;;;;;;4982104;28;20058;-69
2022/01/11 01:57:17;;;;;;;4.55;1.42;;;;;;;;;;5008985;28;20041;-70
2022/01/11 01:59:48;;;;;;;6.47;1.17;;;;;;;;;;4992962;28;20052;-66
2022/01/11 02:02:19;;;;;;;5.07;1.13;;;;;;;;;;5009194;28;20065;-69
2022/01/11 02:04:52;;;;;;;7.43;1.02;;;;;;;;;;4917037;29;20510;-69
2022/01/11 02:07:22;;;;;;;7.60;1.50;;;;;;;;;;4924566;28;20054;-68
2022/01/11 02:09:53;;;;;;;7.00;1.48;;;;;;;;;;4970269;28;20058;-68
2022/01/11 02:12:24;;;;;;;7.63;1.60;;;;;;;;;;4970108;28;20430;-67
2022/01/11 02:14:55;;;;;;;7.57;1.50;;;;;;;;;;4979482;28;20047;-68
2022/01/11 02:17:30;;;;;;;4.78;1.42;;;;;;;;;;4941550;29;20055;-67
2022/01/11 02:20:01;;;;;;;4.63;1.20;;;;;;;;;;4920472;29;20047;-68
2022/01/11 02:22:31;;;;;;;6.72;1.13;;;;;;;;;;4904380;29;20060;-68
2022/01/11 02:25:04;;;;;;;5.63;1.85;;;;;;;;;;4903671;29;20063;-69
2022/01/11 02:27:35;;;;;;;4.03;1.27;;;;;;;;;;4887712;29;20535;-68
2022/01/11 02:30:07;;;;;;;2.42;1.10;;;;;;;;;;4878051;29;20053;-68
2022/01/11 02:32:51;;;;;;;5.18;1.30;;;;;;;;;;4855814;29;20046;-68
2022/01/11 02:35:25;;;;;;;4.63;1.15;;;;;;;;;;4856770;29;20053;-69
2022/01/11 02:37:56;;;;;;;5.35;0.93;;;;;;;;;;4835983;29;20046;-68
2022/01/11 02:40:27;;;;;;;4.90;1.10;;;;;;;;;;4825529;29;20053;-68
2022/01/11 02:42:57;;;;;;;3.63;1.50;;;;;;;;;;4866094;29;20072;-67
2022/01/11 02:45:28;;;;;;;6.57;1.40;;;;;;;;;;4862818;29;20057;-70
2022/01/11 02:47:59;;;;;;;5.68;1.10;;;;;;;;;;4862163;29;20053;-69
2022/01/11 02:50:30;;;;;;;3.38;1.00;;;;;;;;;;4858881;29;20052;-70
2022/01/11 02:53:00;;;;;;;3.30;1.20;;;;;;;;;;4878013;29;20052;-68
2022/01/11 02:55:37;;;;;;;4.32;0.88;;;;;;;;;;4890808;29;20068;-70
2022/01/11 02:58:09;;;;;;;7.20;1.30;;;;;;;;;;4909485;29;20052;-71
2022/01/11 03:00:40;;;;;;;2.42;1.02;;;;;;;;;;4915760;29;20063;-69
2022/01/11 03:03:20;;;;;;;5.88;1.15;;;;;;;;;;4915376;29;20060;-68
2022/01/11 03:06:00;;;;;;;7.75;1.30;;;;;;;;;;4896945;29;20421;-68
2022/01/11 03:08:42;;;;;;;5.20;1.45;;;;;;;;;;4864253;29;20049;-68
2022/01/11 03:11:19;;;;;;;6.88;1.38;;;;;;;;;;4875220;29;20049;-68
2022/01/11 03:13:50;;;;;;;4.70;1.60;;;;;;;;;;4877795;29;20064;-70
2022/01/11 03:16:22;;;;;;;5.15;1.70;;;;;;;;;;4877773;29;20553;-68
2022/01/11 03:18:52;;;;;;;4.25;1.48;;;;;;;;;;4892990;29;20059;-68
2022/01/11 03:21:23;;;;;;;5.13;1.10;;;;;;;;;;4880824;29;20071;-65
2022/01/11 03:23:54;;;;;;;3.55;1.50;;;;;;;;;;4881313;29;20068;-68
2022/01/11 03:26:26;;;;;;;4.78;1.20;;;;;;;;;;4877792;29;20057;-68
2022/01/11 03:28:56;;;;;;;4.50;1.52;;;;;;;;;;4861790;29;20057;-68
2022/01/11 03:31:27;;;;;;;3.83;1.13;;;;;;;;;;4877544;29;20080;-67
2022/01/11 03:33:58;;;;;;;6.13;0.90;;;;;;;;;;4862421;29;20057;-68
2022/01/11 03:36:30;;;;;;;3.75;0.98;;;;;;;;;;4858643;29;20058;-67
2022/01/11 03:39:00;;;;;;;3.72;0.73;;;;;;;;;;4858575;29;20057;-67
2022/01/11 03:41:31;;;;;;;3.78;0.90;;;;;;;;;;4858690;29;20050;-67
2022/01/11 03:44:02;;;;;;;2.92;1.00;;;;;;;;;;4839936;29;20046;-68
2022/01/11 03:46:32;;;;;;;3.45;0.93;;;;;;;;;;4851863;29;20054;-67
2022/01/11 03:49:04;;;;;;;4.13;0.85;;;;;;;;;;4850338;29;20064;-68
2022/01/11 03:51:38;;;;;;;3.67;0.70;;;;;;;;;;4858641;29;20064;-68
2022/01/11 03:54:15;;;;;;;1.42;0.57;;;;;;;;;;4858424;29;20062;-68
2022/01/11 03:57:05;;;;;;;2.80;0.70;;;;;;;;;;4840049;29;20534;-67
2022/01/11 03:59:40;;;;;;;2.22;0.75;;;;;;;;;;4840134;29;20065;-68
2022/01/11 04:02:11;;;;;;;3.72;0.63;;;;;;;;;;4839752;29;20057;-69
2022/01/11 04:04:42;;;;;;;2.53;0.63;;;;;;;;;;4853758;29;20077;-66
2022/01/11 04:07:12;;;;;;;2.25;0.70;;;;;;;;;;4873283;29;20052;-68
2022/01/11 04:09:42;;;;;;;1.58;0.70;;;;;;;;;;4858588;29;20064;-69
2022/01/11 04:12:15;;;;;;;3.15;0.60;;;;;;;;;;4872129;29;20442;-68
2022/01/11 04:14:45;;;;;;;;;;;;;;;;;;4891215;29;20060;-68
2022/01/11 04:17:15;;;;;;;3.30;0.73;;;;;;;;;;4895669;29;19923;-68
2022/01/11 04:19:45;;;;;;;1.50;0.80;;;;;;;;;;4909367;29;20052;-67
2022/01/11 04:22:16;;;;;;;3.28;0.63;;;;;;;;;;4914020;29;20064;-68
2022/01/11 04:24:47;;;;;;;2.95;0.60;;;;;;;;;;4946130;28;20059;-67
2022/01/11 04:27:17;;;;;;;2.97;0.52;;;;;;;;;;4943746;28;20056;-67
2022/01/11 04:29:47;;;;;;;1.83;0.63;;;;;;;;;;4951884;28;20488;-68
2022/01/11 04:32:18;;;;;;;3.10;0.80;;;;;;;;;;4932738;29;20534;-66
2022/01/11 04:34:49;;;;;;;5.72;0.80;;;;;;;;;;4945786;29;20538;-66
2022/01/11 04:37:20;;;;;;;1.50;0.80;;;;;;;;;;4951777;29;20055;-68
2022/01/11 04:39:50;;;;;;;3.65;0.73;;;;;;;;;;4932681;29;20047;-67
2022/01/11 04:42:20;;;;;;;3.65;0.73;;;;;;;;;;4923230;29;20060;-67
2022/01/11 04:44:51;;;;;;;4.38;0.82;;;;;;;;;;4913841;29;20060;-67
2022/01/11 04:47:22;;;;;;;4.40;0.82;;;;;;;;;;4926530;29;20062;-67
2022/01/11 04:49:53;;;;;;;2.67;0.60;;;;;;;;;;4932553;29;20051;-67
2022/01/11 04:52:23;;;;;;;1.63;0.77;;;;;;;;;;4919733;29;20088;-68
2022/01/11 04:54:53;;;;;;;3.53;0.70;;;;;;;;;;4970776;28;20525;-68
2022/01/11 04:57:44;;;;;;;4.10;0.73;;;;;;;;;;4942582;29;20059;-68
2022/01/11 05:00:17;;;;;;;2.35;0.63;;;;;;;;;;4970825;28;20494;-68
2022/01/11 05:02:48;;;;;;;3.10;0.77;;;;;;;;;;4970838;28;20578;-69
2022/01/11 05:05:20;;;;;;;2.97;0.73;;;;;;;;;;4932170;29;20056;-67
2022/01/11 05:07:54;;;;;;;2.72;1.20;;;;;;;;;;4898925;29;20051;-67
2022/01/11 05:10:25;;;;;;;2.30;0.98;;;;;;;;;;4906144;29;20063;-67
2022/01/11 05:12:56;;;;;;;4.47;1.15;;;;;;;;;;4894314;29;20060;-68
2022/01/11 05:15:28;;;;;;;2.92;1.00;;;;;;;;;;4894631;29;20449;-67
2022/01/11 05:17:59;;;;;;;2.15;0.95;;;;;;;;;;4897065;29;20063;-68
2022/01/11 05:20:32;;;;;;;3.15;0.75;;;;;;;;;;4896090;29;20057;-68
2022/01/11 05:23:04;;;;;;;2.53;1.10;;;;;;;;;;4875285;29;20064;-68
2022/01/11 05:25:36;;;;;;;2.42;1.00;;;;;;;;;;4894163;29;20143;-67
2022/01/11 05:28:06;;;;;;;3.95;0.80;;;;;;;;;;4893829;29;20070;-68
2022/01/11 05:30:37;;;;;;;3.05;0.90;;;;;;;;;;4899145;29;20065;-67
2022/01/11 05:33:07;;;;;;;6.35;1.13;;;;;;;;;;4911036;29;20575;-64
2022/01/11 05:35:39;;;;;;;3.63;1.00;;;;;;;;;;4890935;29;20112;-67
2022/01/11 05:38:12;;;;;;;3.17;0.80;;;;;;;;;;4893768;29;20416;-68
2022/01/11 05:40:43;;;;;;;2.38;1.08;;;;;;;;;;4878599;29;20056;-67
2022/01/11 05:43:14;;;;;;;2.40;0.95;;;;;;;;;;4910013;29;20059;-67
2022/01/11 05:45:45;;;;;;;5.28;0.98;;;;;;;;;;4871949;29;20520;-67
2022/01/11 05:48:15;;;;;;;2.75;1.00;;;;;;;;;;4912705;29;20059;-67
2022/01/11 05:50:46;;;;;;;2.13;0.90;;;;;;;;;;4916193;29;20063;-68
2022/01/11 05:53:19;;;;;;;4.07;0.93;;;;;;;;;;4915881;29;20047;-68
2022/01/11 05:55:50;;;;;;;5.35;1.30;;;;;;;;;;4931623;29;20075;-68
2022/01/11 05:58:21;;;;;;;5.00;1.17;;;;;;;;;;4908293;29;21054;-68
2022/01/11 06:00:52;;;;;;;2.72;1.15;;;;;;;;;;4894585;29;20052;-67
2022/01/11 06:03:23;;;;;;;2.58;0.82;;;;;;;;;;4897374;29;20057;-68
2022/01/11 06:05:53;;;;;;;4.28;1.08;;;;;;;;;;4918743;29;20544;-67
2022/01/11 06:08:23;;;;;;;4.10;1.10;;;;;;;;;;4935581;29;20130;-68
2022/01/11 06:10:56;;;;;;;4.40;1.02;;;;;;;;;;4935852;29;20504;-67
2022/01/11 06:13:29;;;;;;;3.60;1.00;;;;;;;;;;4919761;29;20051;-67
2022/01/11 06:15:59;;;;;;;2.35;0.93;;;;;;;;;;4973413;28;20050;-66
2022/01/11 06:18:30;;;;;;;3.35;1.02;;;;;;;;;;4895084;28;20070;-67
2022/01/11 06:21:22;;;;;;;7.70;0.82;;;;;;;;;;4916313;29;20059;-68
2022/01/11 06:23:53;;;;;;;8.85;1.05;;;;;;;;;;4935127;29;20059;-67
2022/01/11 06:26:23;;;;;;;2.05;1.20;;;;;;;;;;4902705;29;20059;-67
2022/01/11 06:28:56;;;;;;;4.00;1.02;;;;;;;;;;4868880;29;20533;-68
2022/01/11 06:31:26;;;;;;;4.75;0.93;;;;;;;;;;4891476;29;20500;-67
2022/01/11 06:33:57;;;;;;;6.10;1.70;;;;;;;;;;4913593;29;20066;-67
2022/01/11 06:36:29;;;;;;;10.65;1.10;;;;;;;;;;4935457;29;20500;-67
2022/01/11 06:39:01;;;;;;;3.08;1.00;;;;;;;;;;4953987;29;20051;-68
2022/01/11 06:41:35;;;;;;;3.97;1.55;;;;;;;;;;4954012;29;20051;-67
2022/01/11 06:44:10;;;;;;;3.20;1.00;;;;;;;;;;4953866;28;20055;-67
2022/01/11 06:46:42;;;;;;;3.10;1.35;;;;;;;;;;4930675;29;20064;-66
2022/01/11 06:49:17;;;;;;;2.63;1.25;;;;;;;;;;4934406;29;20196;-67
2022/01/11 06:51:47;;;;;;;5.72;1.63;;;;;;;;;;4920403;29;20122;-68
2022/01/11 06:54:19;;;;;;;3.53;1.02;;;;;;;;;;4919721;29;20051;-69
2022/01/11 06:56:51;;;;;;;3.53;1.23;;;;;;;;;;4934409;29;20067;-67
2022/01/11 06:59:22;;;;;;;3.28;1.15;;;;;;;;;;4918335;29;20385;-68
2022/01/11 07:01:56;;;;;;;4.55;1.60;;;;;;;;;;4921857;29;20059;-68
2022/01/11 07:04:47;;;;;;;8.85;1.33;;;;;;;;;;4938367;28;20079;-69
2022/01/11 07:07:21;;;;;;;3.60;1.27;;;;;;;;;;4949787;29;20055;-68
2022/01/11 07:09:51;;;;;;;3.30;1.23;;;;;;;;;;4937489;29;20070;-67
2022/01/11 07:12:22;;;;;;;5.55;1.23;;;;;;;;;;4937065;29;20051;-68
2022/01/11 07:14:53;;;;;;;8.18;1.50;;;;;;;;;;4933452;29;20113;-69
2022/01/11 07:17:24;;;;;;;4.38;1.75;;;;;;;;;;4902694;29;20055;-68
2022/01/11 07:19:57;;;;;;;2.75;1.25;;;;;;;;;;4922903;29;20052;-68
2022/01/11 07:22:27;;;;;;;5.82;1.35;;;;;;;;;;4902279;29;20051;-67
2022/01/11 07:24:57;;;;;;;4.82;1.42;;;;;;;;;;4921531;29;20048;-67
2022/01/11 07:27:29;;;;;;;4.45;1.08;;;;;;;;;;4925791;29;20064;-68
2022/01/11 07:29:59;;;;;;;3.53;1.23;;;;;;;;;;4930699;29;20400;-68
2022/01/11 07:32:31;;;;;;;6.60;1.42;;;;;;;;;;4914846;29;20059;-68
2022/01/11 07:35:03;;;;;;;4.88;2.22;;;;;;;;;;4936093;29;20067;-68
2022/01/11 07:37:35;;;;;;;;;;;;;;;;;;4934120;29;20048;-68
2022/01/11 07:40:09;;;;;;;2.92;1.40;;;;;;;;;;4965598;28;19929;-70
2022/01/11 07:42:40;;;;;;;3.33;1.63;;;;;;;;;;4972144;28;20054;-69
2022/01/11 07:45:33;;;;;;;5.13;1.52;;;;;;;;;;4972141;28;20431;-68
2022/01/11 07:48:07;;;;;;;6.88;1.92;;;;;;;;;;4972162;28;20499;-67
2022/01/11 07:50:45;;;;;;;4.35;1.50;;;;;;;;;;4952661;29;20519;-68
2022/01/11 07:53:16;;;;;;;4.18;1.88;;;;;;;;;;4937302;29;20064;-68
2022/01/11 07:55:52;;;;;;;7.20;2.22;;;;;;;;;;4952736;29;20432;-67
2022/01/11 07:58:25;;;;;;;7.15;1.70;;;;;;;;;;4902255;29;20077;-69
2022/01/11 08:00:56;;;;;;;5.82;1.73;;;;;;;;;;4914435;29;20044;-68
2022/01/11 08:03:32;;;;;;;10.15;2.25;;;;;;;;;;4914689;29;20078;-68
2022/01/11 08:06:10;;;;;;;4.75;1.95;;;;;;;;;;4933030;29;20056;-68
2022/01/11 08:08:43;;;;;;;6.53;1.55;;;;;;;;;;4913917;29;20055;-67
2022/01/11 08:11:13;;;;;;;5.28;1.77;;;;;;;;;;4915301;29;20059;-68
2022/01/11 08:13:43;;;;;;;6.15;2.30;;;;;;;;;;4949878;29;20059;-68
2022/01/11 08:16:14;;;;;;;7.63;2.10;;;;;;;;;;4985738;28;20055;-68
2022/01/11 08:18:44;;;;;;;5.88;2.25;;;;;;;;;;4954431;28;20044;-67
2022/01/11 08:21:15;;;;;;;6.40;1.90;;;;;;;;;;4935267;29;20055;-68
2022/01/11 08:23:46;;;;;;;6.22;1.90;;;;;;;;;;4948427;29;20051;-66
2022/01/11 08:26:17;;;;;;;6.50;1.88;;;;;;;;;;4952128;28;20047;-68
2022/01/11 08:28:47;;;;;;;4.68;1.90;;;;;;;;;;4895745;29;20496;-68
2022/01/11 08:31:20;;;;;;;7.88;2.05;;;;;;;;;;4929223;29;20060;-67
2022/01/11 08:33:54;;;;;;;5.05;1.88;;;;;;;;;;4908341;29;20080;-64
2022/01/11 08:36:24;;;;;;;8.45;2.10;;;;;;;;;;4895166;29;20195;-68
2022/01/11 08:38:55;;;;;;;6.57;2.03;;;;;;;;;;4906674;29;20048;-68
2022/01/11 08:41:26;;;;;;;5.57;2.00;;;;;;;;;;4945535;28;20048;-68
2022/01/11 08:43:57;;;;;;;5.80;1.80;;;;;;;;;;4921765;29;20056;-68
2022/01/11 08:46:29;;;;;;;5.45;1.60;;;;;;;;;;4903296;29;20060;-67
2022/01/11 08:49:06;;;;;;;6.72;1.88;;;;;;;;;;4894924;29;20053;-68
2022/01/11 08:51:37;;;;;;;6.30;1.83;;;;;;;;;;4875532;29;20053;-68
2022/01/11 08:54:11;;;;;;;6.05;2.13;;;;;;;;;;4894667;29;20546;-69
2022/01/11 08:56:43;;;;;;;4.85;1.63;;;;;;;;;;4901136;29;20052;-69
2022/01/11 08:59:14;;;;;;;6.30;1.92;;;;;;;;;;4894579;29;20060;-69
2022/01/11 09:01:46;;;;;;;5.50;2.60;;;;;;;;;;4894763;29;20064;-68
2022/01/11 09:04:17;;;;;;;4.97;1.70;;;;;;;;;;4913420;29;20056;-69
2022/01/11 09:07:02;;;;;;;3.97;1.70;;;;;;;;;;4899148;29;20587;-68
2022/01/11 09:09:33;;;;;;;9.02;2.97;;;;;;;;;;4894548;29;20393;-69
2022/01/11 09:12:08;;;;;;;12.45;2.90;;;;;;;;;;4860379;29;20053;-69
2022/01/11 09:14:42;;;;;;;9.65;3.20;;;;;;;;;;4875910;29;20505;-68
2022/01/11 09:17:13;;;;;;;8.70;2.78;;;;;;;;;;4922503;29;20047;-68
2022/01/11 09:19:45;;;;;;;6.90;3.28;;;;;;;;;;4932482;29;20594;-68
2022/01/11 09:22:20;;;;;;;5.05;2.08;;;;;;;;;;4902234;29;20066;-68
2022/01/11 09:24:51;;;;;;;15.43;2.50;;;;;;;;;;4947228;29;20055;-66
2022/01/11 09:27:25;;;;;;;8.60;2.20;;;;;;;;;;4931804;29;20062;-68
2022/01/11 09:30:08;;;;;;;6.25;2.25;;;;;;;;;;4900958;29;20583;-68
2022/01/11 09:32:43;;;;;;;8.38;2.00;;;;;;;;;;4899433;29;20433;-68
2022/01/11 09:35:14;;;;;;;8.20;2.20;;;;;;;;;;4916003;29;20056;-68
2022/01/11 09:37:49;;;;;;;12.35;2.42;;;;;;;;;;4912333;29;20588;-68
2022/01/11 09:40:20;;;;;;;4.75;2.13;;;;;;;;;;4913032;29;20064;-68
2022/01/11 09:42:58;;;;;;;6.47;2.15;;;;;;;;;;4931639;29;20052;-68
2022/01/11 09:45:29;;;;;;;5.60;1.92;;;;;;;;;;4916265;29;20060;-70
2022/01/11 09:48:03;;;;;;;4.57;1.73;;;;;;;;;;4912728;29;20525;-68
2022/01/11 09:50:39;;;;;;;6.57;1.75;;;;;;;;;;4883527;29;20055;-68
2022/01/11 09:53:13;;;;;;;5.28;1.90;;;;;;;;;;4875054;29;20049;-67
2022/01/11 09:55:47;;;;;;;4.40;1.70;;;;;;;;;;4891350;29;20068;-68
2022/01/11 09:58:21;;;;;;;7.55;1.70;;;;;;;;;;4893561;29;20049;-68
2022/01/11 10:00:53;;;;;;;6.60;1.60;;;;;;;;;;4893857;29;20056;-67
2022/01/11 10:04:04;;;;;;;5.47;1.52;;;;;;;;;;4880686;29;20061;-67
2022/01/11 10:06:54;;;;;;;8.63;3.33;;;;;;;;;;4856625;29;20067;-68
2022/01/11 10:09:29;;;;;;;5.55;2.58;;;;;;;;;;4893421;29;20049;-68
2022/01/11 10:12:10;;;;;;;3.58;1.52;;;;;;;;;;4899239;29;20051;-68
2022/01/11 10:14:48;;;;;;;3.50;1.20;;;;;;;;;;4949001;28;20399;-68
2022/01/11 10:17:24;;;;;;;5.32;1.52;;;;;;;;;;4938256;28;20513;-67
2022/01/11 10:20:13;;;;;;;3.55;1.00;;;;;;;;;;4925436;29;20547;-70
2022/01/11 10:23:05;;;;;;;4.57;1.13;;;;;;;;;;4890549;29;20056;-69
2022/01/11 10:25:44;;;;;;;6.05;1.08;;;;;;;;;;4832227;29;20050;-70
2022/01/11 10:28:34;;;;;;;4.43;0.90;;;;;;;;;;4815064;29;20430;-70
2022/01/11 10:31:07;;;;;;;7.05;1.20;;;;;;;;;;4833616;29;20053;-70
2022/01/11 10:34:01;;;;;;;5.07;0.63;;;;;;;;;;4848523;29;20529;-71
2022/01/11 10:36:45;;;;;;;2.85;1.55;;;;;;;;;;4850479;29;20054;-69
2022/01/11 10:39:33;;;;;;;2.17;1.10;;;;;;;;;;4874467;29;20045;-68
2022/01/11 10:42:27;;;;;;;3.20;1.40;;;;;;;;;;4893211;29;20064;-70
2022/01/11 10:45:21;;;;;;;1.95;0.60;;;;;;;;;;4906988;29;20059;-70
2022/01/11 10:47:58;;;;;;;2.13;0.93;;;;;;;;;;4912344;29;20195;-69
2022/01/11 10:50:37;;;;;;;3.17;0.60;;;;;;;;;;4920201;29;20055;-70
2022/01/11 10:53:11;;;;;;;2.55;1.55;;;;;;;;;;4910355;29;20044;-69
2022/01/11 10:55:44;;;;;;;4.18;0.90;;;;;;;;;;4959433;28;20199;-70
2022/01/11 10:58:39;;;;;;;1.25;0.52;;;;;;;;;;4945582;29;20048;-72
2022/01/11 11:01:11;;;;;;;3.20;0.85;;;;;;;;;;4949970;29;20071;-70
2022/01/11 11:03:43;;;;;;;1.88;0.55;;;;;;;;;;4909979;29;20056;-70
2022/01/11 11:06:15;;;;;;;;;;;;;;;;;;4915544;29;20512;-70
2022/01/11 11:08:50;;;;;;;3.58;0.65;;;;;;;;;;4926485;29;19940;-71
2022/01/11 11:11:37;;;;;;;11.15;1.65;;;;;;;;;;4894646;29;20525;-70
2022/01/11 11:14:11;;;;;;;4.60;0.70;;;;;;;;;;4886188;29;20053;-70
2022/01/11 11:16:49;;;;;;;2.80;0.70;;;;;;;;;;4887889;29;20053;-69
2022/01/11 11:19:22;;;;;;;2.13;0.68;;;;;;;;;;4909089;29;20075;-69
2022/01/11 11:21:59;;;;;;;4.47;0.85;;;;;;;;;;4914830;29;20048;-66
2022/01/11 11:24:30;;;;;;;1.92;0.82;;;;;;;;;;4914201;29;20052;-67
2022/01/11 11:27:00;;;;;;;3.13;0.80;;;;;;;;;;4915363;29;20064;-68
2022/01/11 11:29:30;;;;;;;2.97;0.98;;;;;;;;;;4915269;29;20493;-67
2022/01/11 11:32:18;;;;;;;1.40;0.73;;;;;;;;;;4864491;29;20053;-67
2022/01/11 11:34:49;;;;;;;2.97;0.80;;;;;;;;;;4877345;29;20061;-66
2022/01/11 11:37:27;;;;;;;3.60;1.10;;;;;;;;;;4894746;29;20433;-67
2022/01/11 11:40:13;;;;;;;4.80;1.20;;;;;;;;;;4896519;29;20056;-67
2022/01/11 11:42:45;;;;;;;4.55;2.10;;;;;;;;;;4896782;29;20068;-66
2022/01/11 11:45:22;;;;;;;4.22;1.13;;;;;;;;;;4914992;29;20060;-67
2022/01/11 11:48:01;;;;;;;4.38;1.08;;;;;;;;;;4934242;29;20550;-66
2022/01/11 11:50:33;;;;;;;3.63;1.30;;;;;;;;;;4934018;29;20051;-66
2022/01/11 11:53:18;;;;;;;1.63;1.10;;;;;;;;;;4934061;29;20059;-77
2022/01/11 11:55:50;;;;;;;3.83;1.27;;;;;;;;;;4953618;28;20455;-69
2022/01/11 11:58:22;;;;;;;6.18;2.33;;;;;;;;;;4901906;29;20058;-70
2022/01/11 12:00:53;;;;;;;10.77;7.32;;;;;;;;;;4952539;28;20062;-69
2022/01/11 12:03:25;;;;;;;6.50;1.90;;;;;;;;;;4914633;29;20064;-68
2022/01/11 12:05:56;;;;;;;4.32;1.73;;;;;;;;;;4914706;29;20060;-69
2022/01/11 12:08:38;;;;;;;3.15;1.23;;;;;;;;;;4899103;29;20064;-66
2022/01/11 12:11:10;;;;;;;1.75;0.77;;;;;;;;;;4929375;29;20075;-67
2022/01/11 12:13:46;;;;;;;4.53;1.00;;;;;;;;;;4914273;29;20056;-67
2022/01/11 12:16:28;;;;;;;3.38;0.95;;;;;;;;;;4945505;29;20063;-70
2022/01/11 12:19:04;;;;;;;3.90;1.80;;;;;;;;;;4945496;29;20519;-69
2022/01/11 12:21:43;;;;;;;3.80;0.68;;;;;;;;;;4952284;28;20051;-71
2022/01/11 12:24:36;;;;;;;3.15;0.60;;;;;;;;;;4961708;28;20051;-69
2022/01/11 12:27:10;;;;;;;2.90;0.70;;;;;;;;;;4944259;28;20091;-68
2022/01/11 12:29:58;;;;;;;5.80;0.82;;;;;;;;;;4960744;28;20070;-67
2022/01/11 12:32:32;;;;;;;3.47;1.02;;;;;;;;;;4948640;28;20055;-69
2022/01/11 12:35:22;;;;;;;2.85;0.73;;;;;;;;;;5000200;28;20041;-70
2022/01/11 12:38:08;;;;;;;4.97;0.70;;;;;;;;;;5017820;28;20049;-71
2022/01/11 12:40:40;;;;;;;2.97;1.15;;;;;;;;;;5024650;28;20045;-70
2022/01/11 12:43:35;;;;;;;1.90;0.57;;;;;;;;;;5049066;28;20054;-73
2022/01/11 12:46:08;;;;;;;1.98;0.73;;;;;;;;;;5012542;28;20053;-73
2022/01/11 12:48:51;;;;;;;2.78;1.08;;;;;;;;;;5016294;28;20064;-70
2022/01/11 12:51:37;;;;;;;1.05;0.45;;;;;;;;;;5039393;28;20049;-70
2022/01/11 12:54:16;;;;;;;1.15;0.55;;;;;;;;;;5032682;28;20049;-71
2022/01/11 12:56:48;;;;;;;1.33;0.75;;;;;;;;;;4997188;28;20057;-71
2022/01/11 12:59:21;;;;;;;4.95;0.80;;;;;;;;;;5063086;28;20056;-70
2022/01/11 13:02:19;;;;;;;2.33;0.73;;;;;;;;;;5006941;28;20441;-69
2022/01/11 13:04:54;;;;;;;1.00;0.63;;;;;;;;;;4904549;29;20059;-70
2022/01/11 13:07:32;;;;;;;1.05;0.55;;;;;;;;;;4913271;29;20070;-70
2022/01/11 13:10:18;;;;;;;1.70;0.68;;;;;;;;;;4913705;29;20071;-70
2022/01/11 13:12:59;;;;;;;1.05;0.43;;;;;;;;;;4927486;29;21200;-67
2022/01/11 13:15:36;;;;;;;;;;;;;;;;;;4900979;29;20052;-66
2022/01/11 13:18:17;;;;;;;1.83;0.65;;;;;;;;;;4916341;29;19946;-76
2022/01/11 13:21:00;;;;;;;3.03;0.55;;;;;;;;;;4932429;29;20067;-69
2022/01/11 13:23:46;;;;;;;4.05;0.75;;;;;;;;;;4932566;29;20051;-69
2022/01/11 13:26:20;;;;;;;3.20;0.95;;;;;;;;;;4932391;29;20070;-70
2022/01/11 13:28:56;;;;;;;2.33;0.68;;;;;;;;;;4931453;29;20531;-70
2022/01/11 13:31:29;;;;;;;3.80;0.73;;;;;;;;;;4932412;29;20056;-75
2022/01/11 13:34:24;;;;;;;1.13;0.60;;;;;;;;;;4900740;29;20087;-70
2022/01/11 13:36:57;;;;;;;3.63;1.40;;;;;;;;;;4932385;29;20051;-69
2022/01/11 13:39:40;;;;;;;1.67;0.93;;;;;;;;;;4934112;28;20429;-72
2022/01/11 13:42:12;;;;;;;1.67;0.82;;;;;;;;;;5001934;28;20066;-67
2022/01/11 13:44:47;;;;;;;2.15;0.63;;;;;;;;;;5054986;28;20063;-68
2022/01/11 13:47:19;;;;;;;0.90;0.60;;;;;;;;;;5044823;28;20052;-69
2022/01/11 13:49:53;;;;;;;3.05;0.70;;;;;;;;;;5089919;28;20047;-68
2022/01/11 13:52:25;;;;;;;1.27;0.50;;;;;;;;;;5039487;28;20063;-67
2022/01/11 13:54:56;;;;;;;;;;;;;;;;;;5036318;28;20055;-69
2022/01/11 13:57:31;;;;;;;0.85;0.35;;;;;;;;;;5069108;28;19935;-68
2022/01/11 14:00:16;;;;;;;1.10;0.43;;;;;;;;;;5045639;28;20044;-70
2022/01/11 14:02:47;;;;;;;2.33;0.73;;;;;;;;;;5069553;28;20056;-68
2022/01/11 14:05:18;;;;;;;2.33;0.52;;;;;;;;;;5032074;28;20046;-68
2022/01/11 14:07:54;;;;;;;1.63;0.63;;;;;;;;;;5020695;28;20049;-69
2022/01/11 14:10:35;;;;;;;2.47;0.52;;;;;;;;;;4979160;28;20510;-68
2022/01/11 14:13:16;;;;;;;1.23;0.63;;;;;;;;;;5013541;28;20050;-68
2022/01/11 14:15:48;;;;;;;2.08;0.50;;;;;;;;;;5028702;28;20048;-67
2022/01/11 14:18:23;;;;;;;0.60;0.52;;;;;;;;;;5032247;28;20049;-67
2022/01/11 14:21:08;;;;;;;2.03;0.82;;;;;;;;;;5037117;28;20148;-70
2022/01/11 14:23:39;;;;;;;1.17;0.45;;;;;;;;;;5029101;28;20072;-68
2022/01/11 14:26:09;;;;;;;3.30;0.45;;;;;;;;;;5019394;28;20061;-68
2022/01/11 14:28:39;;;;;;;1.83;0.70;;;;;;;;;;5044125;28;20048;-70
2022/01/11 14:31:16;;;;;;;3.03;0.55;;;;;;;;;;5041854;28;20452;-69
2022/01/11 14:33:46;;;;;;;2.50;0.70;;;;;;;;;;5008140;28;20053;-70
2022/01/11 14:36:21;;;;;;;2.45;0.55;;;;;;;;;;5043307;28;20544;-69
2022/01/11 14:39:10;;;;;;;1.05;0.52;;;;;;;;;;5082150;28;20056;-67
2022/01/11 14:41:46;;;;;;;0.95;0.52;;;;;;;;;;5072858;28;20044;-73
2022/01/11 14:44:30;;;;;;;1.60;0.52;;;;;;;;;;5110771;28;20051;-69
2022/01/11 14:47:04;;;;;;;1.45;0.52;;;;;;;;;;5094857;28;20040;-67
2022/01/11 14:49:36;;;;;;;3.00;1.10;;;;;;;;;;5095220;28;20055;-66
2022/01/11 14:52:12;;;;;;;1.33;0.43;;;;;;;;;;5026663;28;20048;-64
2022/01/11 14:54:51;;;;;;;2.35;0.70;;;;;;;;;;5032226;28;20405;-63
2022/01/11 14:57:21;;;;;;;2.58;0.65;;;;;;;;;;5032215;28;20054;-63
2022/01/11 14:59:52;;;;;;;2.65;0.75;;;;;;;;;;5032267;28;20065;-66
2022/01/11 15:02:28;;;;;;;2.05;0.80;;;;;;;;;;4999323;28;20054;-69
2022/01/11 15:04:59;;;;;;;1.75;0.60;;;;;;;;;;5032185;28;20050;-65
2022/01/11 15:07:30;;;;;;;1.65;0.60;;;;;;;;;;5012109;28;20050;-64
2022/01/11 15:10:00;;;;;;;4.47;0.43;;;;;;;;;;4964479;28;20057;-66
2022/01/11 15:12:30;;;;;;;1.52;0.70;;;;;;;;;;5012200;28;20434;-65
2022/01/11 15:15:00;;;;;;;1.00;0.60;;;;;;;;;;5012395;28;20151;-66
2022/01/11 15:17:31;;;;;;;1.90;1.52;;;;;;;;;;5012186;28;20529;-66
2022/01/11 15:20:02;;;;;;;2.17;0.52;;;;;;;;;;4979540;28;20054;-65
2022/01/11 15:22:31;;;;;;;1.13;0.50;;;;;;;;;;4972695;28;20139;-68
2022/01/11 15:25:09;;;;;;;2.92;0.80;;;;;;;;;;4972754;28;20059;-65
2022/01/11 15:27:41;;;;;;;2.70;0.68;;;;;;;;;;4992096;28;20065;-66
2022/01/11 15:30:12;;;;;;;0.95;0.65;;;;;;;;;;4972557;28;20054;-65
2022/01/11 15:32:42;;;;;;;1.67;0.47;;;;;;;;;;5011303;28;20117;-65
2022/01/11 15:35:12;;;;;;;0.98;0.63;;;;;;;;;;5030987;28;20068;-67
2022/01/11 15:37:43;;;;;;;1.85;0.75;;;;;;;;;;5031527;28;20062;-67
2022/01/11 15:40:13;;;;;;;2.05;0.63;;;;;;;;;;4998828;28;20057;-66